createdAt,value
2022-11-24T00:01:34.668Z,8.32
2022-11-24T00:04:27.027Z,7.90
2022-11-24T00:07:12.193Z,8.10
2022-11-24T00:09:44.975Z,9.82
2022-11-24T00:12:32.570Z,8.10
2022-11-24T00:31:42.931Z,6.60
2022-11-24T00:34:41.876Z,12.43
2022-11-24T00:37:29.022Z,8.70
2022-11-24T00:43:28.964Z,10.15
2022-11-24T00:49:37.947Z,12.13
2022-11-24T00:53:01.131Z,7.53
2022-11-24T00:56:26.658Z,10.60
2022-11-24T01:05:33.528Z,10.30
2022-11-24T01:08:23.515Z,9.70
2022-11-24T01:33:00.881Z,8.63
2022-11-24T01:35:27.639Z,8.32
2022-11-24T01:37:54.350Z,8.00
2022-11-24T01:40:21.271Z,8.52
2022-11-24T01:42:50.918Z,9.95
2022-11-24T01:45:41.414Z,10.23
2022-11-24T01:48:22.043Z,10.77
2022-11-24T01:50:58.398Z,9.70
2022-11-24T01:53:25.811Z,9.55
2022-11-24T01:55:53.068Z,7.88
2022-11-24T01:58:24.654Z,7.13
2022-11-24T02:00:52.411Z,8.55
2022-11-24T02:03:25.649Z,9.73
2022-11-24T02:06:19.665Z,9.38
2022-11-24T02:09:02.280Z,9.10
2022-11-24T02:11:35.094Z,9.63
2022-11-24T02:14:03.969Z,9.52
2022-11-24T02:16:31.960Z,8.07
2022-11-24T02:18:58.774Z,7.93
2022-11-24T02:21:25.641Z,6.88
2022-11-24T02:24:06.344Z,8.25
2022-11-24T02:26:41.709Z,8.57
2022-11-24T02:29:11.682Z,9.13
2022-11-24T02:31:43.587Z,7.03
2022-11-24T02:34:10.343Z,8.95
2022-11-24T02:36:37.169Z,8.73
2022-11-24T02:39:09.716Z,12.38
2022-11-24T02:41:37.154Z,8.10
2022-11-24T02:44:04.333Z,8.77
2022-11-24T02:46:31.117Z,8.45
2022-11-24T02:48:57.962Z,6.93
2022-11-24T02:51:24.691Z,7.90
2022-11-24T02:53:51.397Z,9.27
2022-11-24T02:56:18.199Z,8.13
2022-11-24T02:58:44.947Z,7.38
2022-11-24T03:01:11.871Z,8.75
2022-11-24T03:03:39.514Z,9.70
2022-11-24T03:06:06.323Z,8.43
2022-11-24T03:08:33.056Z,6.85
2022-11-24T03:11:01.837Z,10.73
2022-11-24T03:13:28.681Z,7.18
2022-11-24T03:15:55.590Z,7.63
2022-11-24T03:18:22.330Z,8.65
2022-11-24T03:20:49.663Z,7.95
2022-11-24T03:23:16.443Z,8.10
2022-11-24T03:25:43.177Z,7.90
2022-11-24T03:28:09.920Z,9.20
2022-11-24T03:30:36.601Z,7.88
2022-11-24T03:33:05.075Z,8.98
2022-11-24T03:35:31.832Z,7.07
2022-11-24T03:37:58.559Z,10.63
2022-11-24T03:40:25.262Z,7.63
2022-11-24T03:42:51.946Z,8.30
2022-11-24T03:48:07.442Z,8.95
2022-11-24T03:50:34.168Z,7.38
2022-11-24T03:53:00.935Z,8.75
2022-11-24T03:55:27.773Z,7.63
2022-11-24T03:57:54.910Z,8.75
2022-11-24T04:00:21.769Z,8.80
2022-11-24T04:02:48.801Z,8.13
2022-11-24T04:05:15.843Z,9.15
2022-11-24T04:07:42.684Z,7.97
2022-11-24T04:10:09.579Z,7.22
2022-11-24T04:12:45.360Z,8.70
2022-11-24T04:15:17.935Z,7.18
2022-11-24T04:17:46.280Z,10.40
2022-11-24T04:20:13.686Z,11.05
2022-11-24T04:22:40.457Z,7.50
2022-11-24T04:25:08.045Z,9.50
2022-11-24T04:27:36.108Z,9.48
2022-11-24T04:30:04.615Z,7.10
2022-11-24T04:32:31.325Z,7.88
2022-11-24T04:34:58.027Z,10.18
2022-11-24T04:37:24.865Z,8.75
2022-11-24T04:39:51.520Z,10.25
2022-11-24T04:42:18.181Z,10.45
2022-11-24T04:44:44.864Z,7.90
2022-11-24T04:47:21.281Z,8.13
2022-11-24T04:52:16.924Z,8.10
2022-11-24T04:54:43.829Z,8.48
2022-11-24T04:57:22.184Z,9.00
2022-11-24T04:59:49.950Z,10.88
2022-11-24T05:02:17.119Z,7.47
2022-11-24T05:04:43.790Z,10.25
2022-11-24T05:07:18.042Z,9.25
2022-11-24T05:10:04.629Z,10.57
2022-11-24T05:12:31.496Z,9.90
2022-11-24T05:14:59.375Z,8.25
2022-11-24T05:17:34.694Z,9.27
2022-11-24T05:20:01.681Z,7.75
2022-11-24T05:22:29.658Z,9.27
2022-11-24T05:24:56.274Z,10.27
2022-11-24T05:27:23.189Z,8.82
2022-11-24T05:29:50.020Z,10.18
2022-11-24T05:32:16.677Z,9.35
2022-11-24T05:34:45.891Z,10.45
2022-11-24T05:37:12.547Z,10.80
2022-11-24T05:39:39.220Z,10.05
2022-11-24T05:42:26.305Z,9.65
2022-11-24T05:44:53.716Z,11.15
2022-11-24T05:47:21.040Z,9.73
2022-11-24T05:49:47.910Z,10.70
2022-11-24T05:52:15.471Z,9.27
2022-11-24T05:54:42.226Z,7.53
2022-11-24T05:57:09.197Z,8.10
2022-11-24T05:59:35.948Z,10.35
2022-11-24T06:02:03.066Z,10.10
2022-11-24T06:04:29.754Z,10.55
2022-11-24T06:06:56.402Z,8.82
2022-11-24T06:09:23.000Z,10.68
2022-11-24T06:11:49.689Z,19.23
2022-11-24T06:14:16.401Z,11.48
2022-11-24T06:16:43.090Z,13.23
2022-11-24T06:19:11.403Z,14.48
2022-11-24T06:21:38.108Z,8.75
2022-11-24T06:24:05.577Z,9.73
2022-11-24T06:26:32.291Z,8.48
2022-11-24T06:28:59.405Z,12.02
2022-11-24T06:31:26.201Z,12.85
2022-11-24T06:33:53.242Z,9.32
2022-11-24T06:36:20.429Z,13.27
2022-11-24T06:38:47.169Z,8.15
2022-11-24T06:41:15.341Z,10.50
2022-11-24T06:43:42.202Z,11.10
2022-11-24T06:46:08.984Z,10.90
2022-11-24T06:48:35.816Z,10.88
2022-11-24T06:51:05.976Z,12.10
2022-11-24T06:53:37.748Z,11.82
2022-11-24T06:56:12.169Z,11.20
2022-11-24T06:58:47.541Z,12.55
2022-11-24T07:01:26.210Z,13.07
2022-11-24T07:03:54.207Z,10.30
2022-11-24T07:06:22.655Z,11.57
2022-11-24T07:08:49.965Z,11.70
2022-11-24T07:11:19.981Z,12.50
2022-11-24T07:13:47.379Z,11.60
2022-11-24T07:16:15.044Z,14.05
2022-11-24T07:18:42.913Z,11.25
2022-11-24T07:21:09.788Z,12.68
2022-11-24T07:23:36.735Z,14.25
2022-11-24T07:26:06.892Z,13.60
2022-11-24T07:28:36.847Z,17.20
2022-11-24T07:31:12.602Z,16.35
2022-11-24T07:33:39.866Z,14.52
2022-11-24T07:36:07.810Z,16.50
2022-11-24T07:38:35.399Z,12.50
2022-11-24T07:41:03.927Z,11.77
2022-11-24T07:43:35.347Z,14.82
2022-11-24T07:46:02.302Z,16.15
2022-11-24T07:48:29.199Z,13.40
2022-11-24T07:50:58.951Z,14.85
2022-11-24T07:53:25.610Z,12.55
2022-11-24T07:55:58.154Z,16.20
2022-11-24T07:58:27.685Z,14.13
2022-11-24T08:00:58.710Z,12.93
2022-11-24T08:03:25.462Z,15.07
2022-11-24T08:08:43.324Z,13.40
2022-11-24T08:11:15.627Z,12.13
2022-11-24T08:13:42.889Z,13.48
2022-11-24T08:16:15.423Z,17.75
2022-11-24T08:18:42.928Z,14.88
2022-11-24T08:21:13.944Z,14.73
2022-11-24T08:23:40.779Z,15.63
2022-11-24T08:26:13.820Z,13.48
2022-11-24T08:28:40.618Z,15.38
2022-11-24T08:31:09.994Z,15.25
2022-11-24T08:33:37.730Z,13.85
2022-11-24T08:36:09.402Z,16.33
2022-11-24T08:38:36.170Z,13.85
2022-11-24T08:41:08.778Z,15.57
2022-11-24T08:43:35.509Z,17.00
2022-11-24T08:46:05.088Z,11.10
2022-11-24T08:48:32.485Z,11.80
2022-11-24T08:51:05.887Z,17.48
2022-11-24T08:53:32.553Z,14.30
2022-11-24T08:56:03.297Z,11.85
2022-11-24T08:58:30.320Z,12.20
2022-11-24T09:01:07.748Z,12.02
2022-11-24T09:03:34.790Z,15.63
2022-11-24T09:06:02.492Z,17.17
2022-11-24T09:08:30.538Z,15.32
2022-11-24T09:11:27.242Z,14.45
2022-11-24T09:13:54.568Z,13.45
2022-11-24T09:16:26.047Z,13.90
2022-11-24T09:19:04.545Z,12.25
2022-11-24T09:21:34.280Z,12.63
2022-11-24T09:24:01.201Z,14.35
2022-11-24T09:26:33.799Z,17.38
2022-11-24T09:29:02.926Z,11.65
2022-11-24T09:31:33.527Z,13.68
2022-11-24T09:34:01.493Z,12.88
2022-11-24T09:36:28.573Z,13.93
2022-11-24T09:38:55.417Z,11.48
2022-11-24T09:41:48.629Z,11.35
2022-11-24T09:44:34.011Z,16.38
2022-11-24T09:47:28.355Z,14.43
2022-11-24T09:50:03.227Z,13.45
2022-11-24T09:52:49.773Z,16.02
2022-11-24T09:55:29.275Z,15.80
2022-11-24T09:58:25.093Z,14.02
2022-11-24T10:00:54.041Z,14.10
2022-11-24T10:03:29.406Z,16.10
2022-11-24T10:05:56.054Z,14.85
2022-11-24T10:08:50.179Z,17.25
2022-11-24T10:11:28.367Z,14.35
2022-11-24T10:14:14.042Z,16.38
2022-11-24T10:17:02.009Z,15.48
2022-11-24T10:19:48.599Z,13.93
2022-11-24T10:22:26.051Z,16.42
2022-11-24T10:24:58.169Z,13.50
2022-11-24T10:27:37.258Z,12.90
2022-11-24T10:30:13.620Z,13.52
2022-11-24T10:35:15.832Z,19.40
2022-11-24T10:37:55.611Z,16.55
2022-11-24T10:43:27.077Z,16.55
2022-11-24T10:48:57.464Z,14.27
2022-11-24T10:51:34.793Z,12.32
2022-11-24T10:54:11.342Z,14.57
2022-11-24T10:56:42.437Z,15.80
2022-11-24T10:59:28.157Z,17.48
2022-11-24T11:01:55.496Z,15.68
2022-11-24T11:04:27.594Z,16.35
2022-11-24T11:07:16.722Z,17.02
2022-11-24T11:09:43.452Z,18.48
2022-11-24T11:15:26.894Z,23.00
2022-11-24T11:17:58.457Z,19.85
2022-11-24T11:20:33.867Z,16.10
2022-11-24T11:23:13.426Z,17.55
2022-11-24T11:25:41.184Z,21.65
2022-11-24T11:28:31.140Z,17.08
2022-11-24T11:31:20.667Z,14.70
2022-11-24T11:34:03.607Z,17.75
2022-11-24T11:36:33.038Z,13.95
2022-11-24T11:39:00.134Z,15.35
2022-11-24T11:41:32.994Z,21.02
2022-11-24T11:44:25.023Z,18.15
2022-11-24T11:46:54.491Z,15.52
2022-11-24T11:49:21.245Z,15.18
2022-11-24T11:52:23.985Z,20.50
2022-11-24T11:55:28.012Z,16.25
2022-11-24T11:58:03.577Z,14.77
2022-11-24T12:00:35.272Z,15.48
2022-11-24T12:03:23.844Z,14.57
2022-11-24T12:06:15.348Z,17.75
2022-11-24T12:09:19.998Z,18.48
2022-11-24T12:12:21.325Z,16.77
2022-11-24T12:15:01.090Z,14.30
2022-11-24T12:17:52.707Z,17.77
2022-11-24T12:20:37.822Z,15.82
2022-11-24T12:23:41.436Z,15.48
2022-11-24T12:26:32.043Z,15.90
2022-11-24T12:29:08.016Z,13.10
2022-11-24T12:31:59.684Z,20.90
2022-11-24T12:34:29.141Z,21.58
2022-11-24T12:37:32.903Z,18.80
2022-11-24T12:40:13.253Z,18.33
2022-11-24T12:43:13.824Z,18.02
2022-11-24T12:46:02.591Z,17.48
2022-11-24T12:48:43.319Z,20.73
2022-11-24T12:51:25.792Z,22.48
2022-11-24T12:53:53.679Z,17.95
2022-11-24T12:56:28.260Z,13.52
2022-11-24T12:59:10.177Z,17.88
2022-11-24T13:01:44.255Z,14.88
2022-11-24T13:04:49.191Z,19.85
2022-11-24T13:07:32.921Z,15.93
2022-11-24T13:13:17.375Z,19.80
2022-11-24T13:16:07.018Z,20.27
2022-11-24T13:19:01.271Z,17.10
2022-11-24T13:21:28.415Z,17.35
2022-11-24T13:24:17.580Z,21.02
2022-11-24T13:26:48.377Z,19.00
2022-11-24T13:29:32.095Z,18.55
2022-11-24T13:32:04.894Z,19.23
2022-11-24T13:34:40.994Z,16.23
2022-11-24T13:37:31.723Z,18.73
2022-11-24T13:40:22.802Z,16.92
2022-11-24T13:45:52.371Z,19.85
2022-11-24T13:48:19.064Z,15.63
2022-11-24T13:50:54.887Z,20.58
2022-11-24T13:53:36.368Z,19.25
2022-11-24T13:56:03.008Z,18.55
2022-11-24T13:58:43.534Z,21.88
2022-11-24T14:01:20.387Z,25.15
2022-11-24T14:04:32.890Z,18.30
2022-11-24T14:07:09.891Z,16.48
2022-11-24T14:09:52.602Z,18.15
2022-11-24T14:12:22.984Z,14.48
2022-11-24T14:14:55.630Z,21.25
2022-11-24T14:17:24.582Z,18.75
2022-11-24T14:19:53.961Z,17.30
2022-11-24T14:22:33.612Z,26.45
2022-11-24T14:25:02.550Z,18.70
2022-11-24T14:27:31.387Z,22.85
2022-11-24T14:30:22.630Z,20.20
2022-11-24T14:32:59.569Z,18.13
2022-11-24T14:35:35.232Z,15.60
2022-11-24T14:38:03.747Z,20.33
2022-11-24T14:40:51.380Z,19.25
2022-11-24T14:43:30.936Z,20.20
2022-11-24T14:46:00.283Z,13.23
2022-11-24T14:48:30.515Z,21.20
2022-11-24T14:51:21.353Z,20.55
2022-11-24T14:53:51.749Z,19.95
2022-11-24T14:56:24.438Z,16.50
2022-11-24T14:58:51.593Z,26.17
2022-11-24T15:01:21.817Z,20.95
2022-11-24T15:04:46.355Z,21.42
2022-11-24T15:07:16.934Z,19.40
2022-11-24T15:09:49.431Z,18.17
2022-11-24T15:12:41.447Z,19.42
2022-11-24T15:15:15.631Z,17.58
2022-11-24T15:17:53.737Z,22.52
2022-11-24T15:20:28.346Z,18.02
2022-11-24T15:23:18.909Z,24.05
2022-11-24T15:25:45.649Z,24.17
2022-11-24T15:28:12.311Z,25.25
2022-11-24T15:30:39.066Z,24.00
2022-11-24T15:33:17.760Z,17.85
2022-11-24T15:35:45.244Z,17.77
2022-11-24T15:38:12.096Z,19.65
2022-11-24T15:40:40.117Z,17.13
2022-11-24T15:43:36.766Z,18.98
2022-11-24T15:46:03.954Z,20.95
2022-11-24T15:48:31.199Z,19.20
2022-11-24T15:51:01.174Z,18.55
2022-11-24T15:53:36.041Z,19.05
2022-11-24T15:56:06.149Z,21.02
2022-11-24T15:58:32.814Z,20.10
2022-11-24T16:00:59.551Z,15.70
2022-11-24T16:06:19.254Z,22.17
2022-11-24T16:08:50.252Z,16.80
2022-11-24T16:11:16.936Z,16.77
2022-11-24T16:13:48.393Z,19.58
2022-11-24T16:16:18.483Z,17.85
2022-11-24T16:18:45.464Z,16.55
2022-11-24T16:21:12.251Z,18.25
2022-11-24T16:23:39.003Z,13.13
2022-11-24T16:26:06.185Z,16.30
2022-11-24T16:28:32.942Z,14.65
2022-11-24T16:30:59.701Z,15.55
2022-11-24T16:33:29.095Z,18.23
2022-11-24T16:35:55.726Z,14.80
2022-11-24T16:38:22.415Z,15.68
2022-11-24T16:40:54.155Z,16.20
2022-11-24T16:43:20.935Z,16.63
2022-11-24T16:45:59.980Z,17.25
2022-11-24T16:48:26.736Z,17.17
2022-11-24T16:50:53.405Z,12.88
2022-11-24T16:53:20.123Z,13.55
2022-11-24T16:55:56.578Z,20.85
2022-11-24T17:00:50.107Z,17.83
2022-11-24T17:03:16.807Z,17.95
2022-11-24T17:05:43.483Z,14.63
2022-11-24T17:08:10.159Z,19.40
2022-11-24T17:10:39.810Z,17.15
2022-11-24T17:13:06.474Z,15.05
2022-11-24T17:15:37.792Z,18.80
2022-11-24T17:18:35.685Z,13.60
2022-11-24T17:20:57.835Z,14.65
2022-11-24T17:23:25.100Z,15.10
2022-11-24T17:25:51.729Z,16.40
2022-11-24T17:28:18.686Z,16.13
2022-11-24T17:30:45.363Z,13.70
2022-11-24T17:33:12.635Z,17.25
2022-11-24T17:35:39.329Z,20.25
2022-11-24T17:38:05.996Z,17.27
2022-11-24T17:40:32.652Z,15.73
2022-11-24T17:43:00.413Z,16.65
2022-11-24T17:45:28.761Z,15.48
2022-11-24T17:47:56.182Z,18.83
2022-11-24T17:50:25.927Z,20.63
2022-11-24T17:52:53.842Z,17.10
2022-11-24T17:55:21.021Z,20.25
2022-11-24T17:57:47.680Z,19.27
2022-11-24T18:00:14.838Z,16.63
2022-11-24T18:02:41.883Z,19.42
2022-11-24T18:05:09.036Z,15.45
2022-11-24T18:07:36.975Z,17.38
2022-11-24T18:10:04.252Z,20.25
2022-11-24T18:12:32.052Z,18.67
2022-11-24T18:14:58.754Z,20.77
2022-11-24T18:17:25.557Z,20.98
2022-11-24T18:19:52.234Z,18.70
2022-11-24T18:22:21.058Z,15.15
2022-11-24T18:24:53.894Z,20.52
2022-11-24T18:27:20.509Z,17.17
2022-11-24T18:29:49.830Z,16.52
2022-11-24T18:32:18.702Z,15.05
2022-11-24T18:34:45.385Z,17.08
2022-11-24T18:37:13.568Z,17.00
2022-11-24T18:39:42.979Z,15.13
2022-11-24T18:42:10.427Z,14.10
2022-11-24T18:44:37.326Z,18.33
2022-11-24T18:47:04.461Z,17.55
2022-11-24T18:49:34.153Z,21.20
2022-11-24T18:52:00.760Z,20.52
2022-11-24T18:54:28.152Z,18.33
2022-11-24T18:56:58.989Z,17.42
2022-11-24T18:59:29.766Z,16.02
2022-11-24T19:01:57.984Z,22.13
2022-11-24T19:04:26.197Z,14.98
2022-11-24T19:06:52.953Z,16.25
2022-11-24T19:09:22.551Z,18.38
2022-11-24T19:11:49.300Z,17.17
2022-11-24T19:14:18.165Z,15.20
2022-11-24T19:16:47.591Z,18.95
2022-11-24T19:19:14.353Z,15.65
2022-11-24T19:21:41.158Z,14.70
2022-11-24T19:24:13.319Z,18.10
2022-11-24T19:26:40.450Z,17.65
2022-11-24T19:29:08.426Z,18.38
2022-11-24T19:31:35.878Z,15.52
2022-11-24T19:34:03.438Z,13.27
2022-11-24T19:36:30.626Z,14.68
2022-11-24T19:38:58.537Z,15.98
2022-11-24T19:41:28.165Z,16.67
2022-11-24T19:43:55.176Z,15.65
2022-11-24T19:46:26.085Z,15.88
2022-11-24T19:48:59.791Z,15.68
2022-11-24T19:51:31.998Z,15.35
2022-11-24T19:53:59.497Z,18.85
2022-11-24T19:56:31.691Z,14.00
2022-11-24T19:58:58.355Z,15.98
2022-11-24T20:01:31.316Z,14.95
2022-11-24T20:04:03.825Z,15.15
2022-11-24T20:06:32.960Z,16.08
2022-11-24T20:09:00.703Z,18.13
2022-11-24T20:11:28.278Z,17.42
2022-11-24T20:13:55.634Z,14.80
2022-11-24T20:16:29.410Z,14.27
2022-11-24T20:18:58.687Z,16.58
2022-11-24T20:21:33.125Z,14.68
2022-11-24T20:24:05.747Z,16.33
2022-11-24T20:26:36.287Z,15.52
2022-11-24T20:29:04.052Z,14.20
2022-11-24T20:31:36.598Z,16.02
2022-11-24T20:34:05.076Z,14.18
2022-11-24T20:36:32.868Z,18.23
2022-11-24T20:39:01.406Z,20.15
2022-11-24T20:41:30.341Z,15.43
2022-11-24T20:44:01.147Z,17.50
2022-11-24T20:46:30.272Z,18.33
2022-11-24T20:48:57.857Z,18.77
2022-11-24T20:51:27.511Z,18.17
2022-11-24T20:53:58.228Z,16.10
2022-11-24T20:56:28.072Z,15.48
2022-11-24T20:58:55.475Z,16.17
2022-11-24T21:01:31.330Z,14.05
2022-11-24T21:03:59.454Z,13.70
2022-11-24T21:06:28.054Z,14.00
2022-11-24T21:09:00.491Z,12.63
2022-11-24T21:11:30.275Z,14.05
2022-11-24T21:13:57.266Z,15.45
2022-11-24T21:16:27.471Z,15.15
2022-11-24T21:19:02.439Z,15.07
2022-11-24T21:21:34.101Z,14.48
2022-11-24T21:24:02.599Z,15.18
2022-11-24T21:26:29.557Z,15.52
2022-11-24T21:28:57.120Z,16.20
2022-11-24T21:31:24.386Z,13.93
2022-11-24T21:33:53.106Z,15.43
2022-11-24T21:36:23.337Z,12.98
2022-11-24T21:38:58.767Z,16.98
2022-11-24T21:41:28.208Z,16.40
2022-11-24T21:43:55.933Z,15.70
2022-11-24T21:46:23.132Z,16.73
2022-11-24T21:48:50.820Z,17.13
2022-11-24T21:51:19.699Z,15.88
2022-11-24T21:53:47.418Z,19.02
2022-11-24T21:56:17.362Z,17.13
2022-11-24T21:58:51.981Z,17.90
2022-11-24T22:01:20.360Z,20.80
2022-11-24T22:03:47.208Z,16.58
2022-11-24T22:06:15.434Z,16.98
2022-11-24T22:08:42.351Z,19.83
2022-11-24T22:11:13.627Z,16.70
2022-11-24T22:13:41.398Z,18.23
2022-11-24T22:16:10.701Z,17.42
2022-11-24T22:18:40.071Z,16.65
2022-11-24T22:21:08.453Z,16.10
2022-11-24T22:23:36.295Z,15.80
2022-11-24T22:26:05.487Z,17.58
2022-11-24T22:28:33.401Z,18.52
2022-11-24T22:31:07.515Z,16.92
2022-11-24T22:33:34.490Z,18.15
2022-11-24T22:36:02.037Z,16.33
2022-11-24T22:38:30.167Z,16.67
2022-11-24T22:41:17.256Z,16.88
2022-11-24T22:43:45.199Z,19.08
2022-11-24T22:46:13.280Z,20.05
2022-11-24T22:48:40.793Z,17.90
2022-11-24T22:51:13.186Z,19.73
2022-11-24T22:53:41.725Z,19.05
2022-11-24T22:56:10.996Z,19.67
2022-11-24T22:58:39.148Z,24.17
2022-11-24T23:01:20.430Z,16.63
2022-11-24T23:03:48.686Z,18.17
2022-11-24T23:06:18.212Z,20.52
2022-11-24T23:08:44.980Z,16.77
2022-11-24T23:11:14.939Z,21.55
2022-11-24T23:13:42.355Z,16.95
2022-11-24T23:16:19.092Z,16.20
2022-11-24T23:18:52.367Z,32.70
2022-11-24T23:21:27.027Z,16.45
2022-11-24T23:23:54.165Z,18.63
2022-11-24T23:26:26.450Z,18.25
2022-11-24T23:28:53.531Z,15.93
2022-11-24T23:31:24.256Z,15.40
2022-11-24T23:33:51.047Z,15.63
2022-11-24T23:36:19.143Z,16.45
2022-11-24T23:38:47.227Z,15.95
2022-11-24T23:41:16.745Z,14.80
2022-11-24T23:43:43.830Z,17.00
2022-11-24T23:46:20.464Z,15.05
2022-11-24T23:48:48.190Z,14.68
2022-11-24T23:51:14.701Z,14.68
2022-11-24T23:53:42.227Z,14.43
2022-11-24T23:56:12.525Z,15.10
2022-11-24T23:58:39.878Z,16.17
